Detall de PIREP

Printer-friendly versionPDF version

[2013/02/16 10:22:00]
Flight IATA:CT3300
Pilot Number:012
Company ICAO:CAT
Aircraft Type:F50/A
PAX:50
Aircraft Registration:PAOB
Departing Airport: LEZG
Destination Airport: DAAG
Alternate Airport:DAAE
Online: VATSIM
Route:PONEN T600 RES A29 MJV B31 ZEM
Flight Level:F230
No Slew and time accel
No pause
Crash detect
Detect pilot in Cockpit between each 30 and 45 minutes
10:22 Zero fuel Weight: 35880 Lbs, Fuel Weight: 4056 Lbs
10:22 VATSIM:LEZG 161000Z 00000KT 9000 NSC 07/03 Q1021
10:22 VATSIM:DAAG 161000Z VRB02KT CAVOK 14/10 Q1021
10:22 VOICE CATALONIAN
10:27 Parking Brakes off
10:30 Take-off
10:30 Take off Weight: 39858 Lbs
10:30 Wind: 000º @ 000 Knots Heading: 299º
10:30 POS N41º 39´ 37´´ W001º 01´ 09´´
10:30 Gear Up: 109 Knots
10:30 Flaps:3 at 109 Knots
10:30 Flaps:2 at 137 Knots
10:31 Flaps:1 at 149 Knots
10:31 Flaps:0 at 149 Knots
10:45 Wind:290º@018 Knots Heading: 126º Ground Speed: 222 Knots Altitude 18421 ft
10:50 TOC
10:50 Fuel Weight: 3279 Lb
11:00 Wind:295º@036 Knots Heading: 096º Ground Speed: 291 Knots Altitude 23228 ft
11:15 Wind:295º@036 Knots Heading: 164º Ground Speed: 281 Knots Altitude 23228 ft
11:30 Wind:301º@031 Knots Heading: 109º Ground Speed: 286 Knots Altitude 23244 ft
11:45 Wind:301º@031 Knots Heading: 169º Ground Speed: 277 Knots Altitude 23234 ft
11:59 TOD
11:59 Fuel Weight: 1584 Lb
12:00 Wind:291º@023 Knots Heading: 172º Ground Speed: 262 Knots Altitude 22316 ft
12:11 Flaps:1 at 171 Knots
12:11 Flaps:2 at 170 Knots
12:11 Gear Down: 168 Knots
12:11 Flaps:3 at 141 Knots
12:11 Flaps:4 at 133 Knots
12:12 Flaps:5 at 122 Knots
12:12 Flaps:6 at 116 Knots
12:14 TouchDown:Rate -110 ft/min Speed: 101 Knots
12:14 VATSIM:DAAG 161130Z 04006KT 330V090 9999 FEW026 SCT200 17/11 Q1021
12:14 Land
12:14 Wind:313º@004 Knots
12:14 Heading: 233º
12:14 Flight Duration: 01:44
12:14 Landing Weight: 37343 Lbs
12:14 POS N36º 42´ 18´´ E003º 14´ 19´´
12:19 Parking brakes on
12:19 Block to Block Duration: 01:52
12:19 Final Fuel: 1417 Lbls
12:19 Spent Fuel: 2638 Lbls
12:19 Flight Length: 443 NM
12:19 TOD Land Length: 51 NM

Exportar CSV

Powered by Drupal - Modified by Danger4k